createdAt,value
2022-10-05T00:01:21.615Z,17.24
2022-10-05T00:04:09.233Z,17.49
2022-10-05T00:06:56.835Z,17.46
2022-10-05T00:09:44.378Z,17.61
2022-10-05T00:12:31.950Z,17.61
2022-10-05T00:15:19.476Z,17.56
2022-10-05T00:18:07.036Z,17.23
2022-10-05T00:20:54.586Z,17.33
2022-10-05T00:23:42.237Z,17.36
2022-10-05T00:26:29.773Z,17.48
2022-10-05T00:29:17.350Z,17.68
2022-10-05T00:32:04.972Z,17.76
2022-10-05T00:34:52.614Z,17.69
2022-10-05T00:37:40.153Z,17.61
2022-10-05T00:40:27.811Z,17.75
2022-10-05T00:43:15.363Z,17.70
2022-10-05T00:46:02.986Z,17.93
2022-10-05T00:48:50.603Z,17.88
2022-10-05T00:51:38.244Z,17.80
2022-10-05T00:54:27.784Z,17.89
2022-10-05T00:57:15.335Z,17.77
2022-10-05T01:00:02.894Z,17.85
2022-10-05T01:02:50.639Z,17.86
2022-10-05T01:05:40.225Z,17.82
2022-10-05T01:08:27.796Z,17.13
2022-10-05T01:11:15.343Z,15.22
2022-10-05T01:14:02.908Z,14.02
2022-10-05T01:16:50.958Z,13.90
2022-10-05T01:19:38.711Z,14.01
2022-10-05T01:22:26.298Z,13.80
2022-10-05T01:25:13.839Z,13.39
2022-10-05T01:28:01.420Z,13.57
2022-10-05T01:30:49.040Z,13.97
2022-10-05T01:33:36.614Z,14.14
2022-10-05T01:36:24.160Z,14.64
2022-10-05T01:39:11.718Z,14.96
2022-10-05T01:41:59.264Z,14.96
2022-10-05T01:44:46.820Z,15.05
2022-10-05T01:47:34.353Z,14.84
2022-10-05T01:50:21.909Z,15.06
2022-10-05T01:53:09.475Z,15.00
2022-10-05T01:55:57.048Z,14.47
2022-10-05T01:58:44.584Z,13.98
2022-10-05T02:01:32.221Z,13.63
2022-10-05T02:04:43.353Z,13.27
2022-10-05T02:07:27.295Z,13.22
2022-10-05T02:10:14.883Z,13.16
2022-10-05T02:13:02.403Z,13.18
2022-10-05T02:15:49.995Z,13.24
2022-10-05T02:18:37.560Z,13.44
2022-10-05T02:21:25.116Z,13.25
2022-10-05T02:24:12.687Z,13.17
2022-10-05T02:27:00.224Z,12.92
2022-10-05T02:29:47.766Z,12.41
2022-10-05T02:32:35.312Z,12.07
2022-10-05T02:35:22.850Z,11.71
2022-10-05T02:38:10.413Z,11.45
2022-10-05T02:40:57.961Z,11.50
2022-10-05T02:43:45.547Z,11.29
2022-10-05T02:46:33.095Z,11.40
2022-10-05T02:49:20.643Z,11.73
2022-10-05T02:52:08.190Z,12.29
2022-10-05T02:54:55.757Z,12.52
2022-10-05T02:57:43.306Z,12.82
2022-10-05T03:00:30.901Z,13.23
2022-10-05T03:03:18.449Z,13.95
2022-10-05T03:06:06.013Z,14.34
2022-10-05T03:08:53.557Z,14.75
2022-10-05T03:11:41.104Z,15.29
2022-10-05T03:14:28.642Z,15.64
2022-10-05T03:17:16.206Z,15.79
2022-10-05T03:20:03.742Z,16.04
2022-10-05T03:22:51.295Z,16.14
2022-10-05T03:25:38.854Z,16.36
2022-10-05T03:28:26.494Z,16.17
2022-10-05T03:31:14.275Z,16.30
2022-10-05T03:34:01.837Z,16.35
2022-10-05T03:36:49.598Z,16.42
2022-10-05T03:39:37.321Z,16.37
2022-10-05T03:42:24.978Z,16.37
2022-10-05T03:45:12.552Z,16.45
2022-10-05T03:48:01.717Z,16.23
2022-10-05T03:50:49.385Z,16.35
2022-10-05T03:53:36.944Z,16.54
2022-10-05T03:56:24.473Z,16.62
2022-10-05T03:59:12.034Z,16.39
2022-10-05T04:01:59.581Z,16.73
2022-10-05T04:04:47.245Z,16.84
2022-10-05T04:07:34.784Z,16.64
2022-10-05T04:10:23.308Z,16.21
2022-10-05T04:13:10.848Z,16.60
2022-10-05T04:15:58.470Z,16.83
2022-10-05T04:18:46.091Z,17.01
2022-10-05T04:21:33.656Z,16.68
2022-10-05T04:24:21.201Z,16.65
2022-10-05T04:27:08.861Z,16.16
2022-10-05T04:29:56.396Z,16.19
2022-10-05T04:32:43.957Z,16.09
2022-10-05T04:35:31.492Z,16.11
2022-10-05T04:38:19.061Z,15.93
2022-10-05T04:41:06.605Z,16.02
2022-10-05T04:43:54.170Z,15.94
2022-10-05T04:46:41.771Z,15.80
2022-10-05T04:49:29.479Z,16.04
2022-10-05T04:52:17.007Z,16.06
2022-10-05T04:55:04.563Z,16.04
2022-10-05T04:57:52.184Z,16.13
2022-10-05T05:00:39.805Z,15.97
2022-10-05T05:03:27.469Z,15.76
2022-10-05T05:06:17.770Z,15.60
2022-10-05T05:09:05.690Z,15.77
2022-10-05T05:11:53.285Z,15.67
2022-10-05T05:14:40.820Z,15.82
2022-10-05T05:17:28.404Z,15.77
2022-10-05T05:20:15.953Z,15.84
2022-10-05T05:23:03.533Z,15.80
2022-10-05T05:25:51.063Z,15.77
2022-10-05T05:28:38.740Z,15.97
2022-10-05T05:31:26.325Z,16.10
2022-10-05T05:34:13.918Z,16.10
2022-10-05T05:37:01.464Z,15.74
2022-10-05T05:39:49.024Z,15.80
2022-10-05T05:42:36.567Z,15.49
2022-10-05T05:45:24.231Z,15.82
2022-10-05T05:48:13.756Z,15.77
2022-10-05T05:51:01.331Z,15.70
2022-10-05T05:53:48.863Z,15.45
2022-10-05T05:56:36.535Z,15.26
2022-10-05T05:59:26.061Z,15.47
2022-10-05T06:02:13.699Z,15.36
2022-10-05T06:05:01.307Z,15.27
2022-10-05T06:07:48.855Z,15.18
2022-10-05T06:10:36.408Z,15.16
2022-10-05T06:13:23.978Z,14.99
2022-10-05T06:16:11.577Z,14.96
2022-10-05T06:18:59.151Z,14.71
2022-10-05T06:21:46.708Z,14.84
2022-10-05T06:24:34.285Z,15.18
2022-10-05T06:27:21.826Z,14.96
2022-10-05T06:30:09.389Z,15.04
2022-10-05T06:32:56.929Z,15.25
2022-10-05T06:35:44.506Z,15.58
2022-10-05T06:38:32.036Z,15.15
2022-10-05T06:41:19.585Z,15.09
2022-10-05T06:44:07.138Z,15.06
2022-10-05T06:46:54.692Z,14.95
2022-10-05T06:49:42.229Z,14.99
2022-10-05T06:52:29.802Z,15.12
2022-10-05T06:55:17.376Z,15.29
2022-10-05T06:58:04.937Z,15.13
2022-10-05T07:00:52.519Z,15.41
2022-10-05T07:03:40.260Z,15.54
2022-10-05T07:06:27.863Z,15.94
2022-10-05T07:09:15.473Z,15.96
2022-10-05T07:12:05.347Z,15.82
2022-10-05T07:14:53.304Z,15.96
2022-10-05T07:17:42.871Z,15.72
2022-10-05T07:20:30.413Z,15.80
2022-10-05T07:23:18.019Z,15.83
2022-10-05T07:26:05.579Z,15.51
2022-10-05T07:28:53.150Z,15.84
2022-10-05T07:31:40.704Z,15.81
2022-10-05T07:34:28.284Z,15.47
2022-10-05T07:37:15.823Z,15.40
2022-10-05T07:40:03.483Z,15.42
2022-10-05T07:42:52.409Z,15.53
2022-10-05T07:45:40.110Z,15.41
2022-10-05T07:48:27.713Z,15.30
2022-10-05T07:51:15.296Z,15.42
2022-10-05T07:54:02.851Z,15.57
2022-10-05T07:56:50.776Z,15.51
2022-10-05T07:59:38.451Z,15.57
2022-10-05T08:02:26.134Z,15.84
2022-10-05T08:05:13.755Z,15.73
2022-10-05T08:08:01.334Z,15.80
2022-10-05T08:10:48.891Z,15.64
2022-10-05T08:13:36.474Z,15.55
2022-10-05T08:16:24.092Z,15.80
2022-10-05T08:19:11.730Z,15.73
2022-10-05T08:21:59.278Z,16.05
2022-10-05T08:24:46.859Z,15.99
2022-10-05T08:27:34.442Z,16.00
2022-10-05T08:30:21.993Z,16.34
2022-10-05T08:33:09.570Z,16.46
2022-10-05T08:35:57.134Z,16.76
2022-10-05T08:38:44.704Z,16.88
2022-10-05T08:41:32.265Z,16.95
2022-10-05T08:44:19.834Z,16.70
2022-10-05T08:47:07.391Z,17.23
2022-10-05T08:49:54.963Z,17.05
2022-10-05T08:52:42.499Z,16.89
2022-10-05T08:55:30.158Z,16.83
2022-10-05T08:58:17.723Z,16.96
2022-10-05T09:01:05.399Z,17.18
2022-10-05T09:03:52.959Z,17.12
2022-10-05T09:06:40.542Z,17.36
2022-10-05T09:09:28.098Z,17.60
2022-10-05T09:12:15.683Z,17.68
2022-10-05T09:15:24.196Z,17.56
2022-10-05T09:18:12.745Z,17.69
2022-10-05T09:21:00.299Z,17.29
2022-10-05T09:23:47.903Z,17.36
2022-10-05T09:26:35.467Z,17.44
2022-10-05T09:29:23.050Z,17.45
2022-10-05T09:32:14.291Z,17.19
2022-10-05T09:35:03.948Z,17.31
2022-10-05T09:37:51.528Z,17.58
2022-10-05T09:40:39.067Z,17.86
2022-10-05T09:43:26.634Z,17.93
2022-10-05T09:46:14.458Z,17.35
2022-10-05T09:49:02.052Z,17.96
2022-10-05T09:51:49.871Z,17.83
2022-10-05T09:54:39.555Z,18.21
2022-10-05T09:57:27.112Z,18.29
2022-10-05T10:00:14.698Z,18.28
2022-10-05T10:03:02.358Z,18.42
2022-10-05T10:05:50.031Z,18.34
2022-10-05T10:08:38.641Z,18.48
2022-10-05T10:11:26.215Z,18.17
2022-10-05T10:14:13.769Z,18.22
2022-10-05T10:17:01.341Z,18.00
2022-10-05T10:19:48.905Z,17.74
2022-10-05T10:22:39.683Z,18.26
2022-10-05T10:25:30.447Z,18.29
2022-10-05T10:28:18.062Z,18.24
2022-10-05T10:31:05.735Z,18.54
2022-10-05T10:33:53.319Z,18.54
2022-10-05T10:36:40.974Z,18.72
2022-10-05T10:39:28.540Z,18.50
2022-10-05T10:42:16.115Z,18.87
2022-10-05T10:45:03.676Z,18.75
2022-10-05T10:47:51.246Z,19.14
2022-10-05T10:50:39.144Z,18.86
2022-10-05T10:53:26.775Z,19.03
2022-10-05T10:56:14.358Z,19.26
2022-10-05T10:59:01.920Z,18.84
2022-10-05T11:01:51.973Z,19.30
2022-10-05T11:04:40.044Z,19.29
2022-10-05T11:07:27.601Z,19.35
2022-10-05T11:10:15.180Z,19.36
2022-10-05T11:13:02.769Z,19.54
2022-10-05T11:15:50.386Z,19.87
2022-10-05T11:18:37.972Z,19.65
2022-10-05T11:21:25.569Z,19.48
2022-10-05T11:24:13.123Z,19.72
2022-10-05T11:27:00.678Z,19.39
2022-10-05T11:29:48.221Z,19.61
2022-10-05T11:32:35.803Z,20.11
2022-10-05T11:35:23.343Z,19.82
2022-10-05T11:38:10.903Z,19.92
2022-10-05T11:40:58.466Z,19.51
2022-10-05T11:43:46.042Z,19.58
2022-10-05T11:46:33.648Z,19.75
2022-10-05T11:49:21.253Z,19.95
2022-10-05T11:52:08.803Z,19.48
2022-10-05T11:55:10.468Z,20.08
2022-10-05T11:57:59.133Z,20.11
2022-10-05T12:00:46.710Z,20.02
2022-10-05T12:03:34.337Z,20.13
2022-10-05T12:06:22.038Z,20.20
2022-10-05T12:09:09.606Z,20.39
2022-10-05T12:11:58.150Z,20.15
2022-10-05T12:14:45.769Z,19.86
2022-10-05T12:17:33.437Z,19.84
2022-10-05T12:20:22.966Z,20.31
2022-10-05T12:23:10.520Z,20.30
2022-10-05T12:26:00.056Z,20.58
2022-10-05T12:28:47.644Z,20.85
2022-10-05T12:31:35.237Z,20.67
2022-10-05T12:34:22.833Z,20.73
2022-10-05T12:37:10.440Z,20.94
2022-10-05T12:39:58.048Z,20.66
2022-10-05T12:42:45.604Z,20.86
2022-10-05T12:45:33.224Z,20.47
2022-10-05T12:48:20.835Z,20.72
2022-10-05T12:51:08.425Z,20.70
2022-10-05T12:53:55.962Z,20.76
2022-10-05T12:56:43.516Z,21.03
2022-10-05T12:59:33.027Z,21.26
2022-10-05T13:02:20.689Z,20.86
2022-10-05T13:05:08.254Z,20.81
2022-10-05T13:07:55.907Z,20.65
2022-10-05T13:10:45.423Z,20.29
2022-10-05T13:13:32.989Z,20.31
2022-10-05T13:16:20.534Z,20.86
2022-10-05T13:19:08.122Z,20.64
2022-10-05T13:21:55.677Z,20.84
2022-10-05T13:24:43.250Z,20.90
2022-10-05T13:27:30.782Z,21.14
2022-10-05T13:30:18.437Z,21.36
2022-10-05T13:33:05.968Z,20.69
2022-10-05T13:35:53.513Z,20.81
2022-10-05T13:38:41.062Z,20.83
2022-10-05T13:41:28.637Z,20.83
2022-10-05T13:44:16.182Z,20.96
2022-10-05T13:47:03.736Z,21.01
2022-10-05T13:49:51.276Z,21.46
2022-10-05T13:52:38.832Z,21.25
2022-10-05T13:55:26.372Z,21.21
2022-10-05T13:58:13.923Z,21.08
2022-10-05T14:01:01.460Z,20.95
2022-10-05T14:03:49.009Z,21.25
2022-10-05T14:06:38.568Z,21.28
2022-10-05T14:09:26.109Z,21.49
2022-10-05T14:12:13.652Z,21.68
2022-10-05T14:15:01.183Z,21.81
2022-10-05T14:17:48.749Z,21.30
2022-10-05T14:20:36.303Z,21.36
2022-10-05T14:23:23.878Z,21.56
2022-10-05T14:26:11.654Z,21.60
2022-10-05T14:28:59.218Z,21.56
2022-10-05T14:31:46.947Z,21.82
2022-10-05T14:34:36.558Z,21.71
2022-10-05T14:37:24.168Z,21.60
2022-10-05T14:40:11.695Z,21.84
2022-10-05T14:42:59.247Z,21.64
2022-10-05T14:45:46.832Z,21.48
2022-10-05T14:48:34.412Z,21.50
2022-10-05T14:51:21.978Z,22.13
2022-10-05T14:54:09.520Z,21.44
2022-10-05T14:56:57.083Z,21.34
2022-10-05T14:59:44.637Z,21.74
2022-10-05T15:02:32.268Z,21.18
2022-10-05T15:05:19.843Z,21.66
2022-10-05T15:08:07.405Z,21.42
2022-10-05T15:10:54.962Z,21.72
2022-10-05T15:13:42.530Z,21.55
2022-10-05T15:16:30.130Z,21.43
2022-10-05T15:19:17.738Z,21.72
2022-10-05T15:22:05.308Z,21.54
2022-10-05T15:24:52.868Z,21.23
2022-10-05T15:27:40.401Z,21.02
2022-10-05T15:30:28.023Z,21.07
2022-10-05T15:33:15.582Z,20.90
2022-10-05T15:36:03.168Z,21.17
2022-10-05T15:38:50.746Z,20.92
2022-10-05T15:41:38.316Z,21.04
2022-10-05T15:44:25.859Z,21.17
2022-10-05T15:47:13.520Z,21.12
2022-10-05T15:50:01.071Z,20.97
2022-10-05T15:52:48.718Z,21.21
2022-10-05T15:55:36.267Z,21.29
2022-10-05T15:58:25.885Z,21.17
2022-10-05T16:01:13.499Z,21.27
2022-10-05T16:04:01.136Z,21.44
2022-10-05T16:06:48.694Z,21.43
2022-10-05T16:09:36.260Z,21.48
2022-10-05T16:12:23.805Z,20.84
2022-10-05T16:15:11.356Z,20.90
2022-10-05T16:17:58.910Z,20.76
2022-10-05T16:20:46.468Z,20.60
2022-10-05T16:23:34.016Z,20.57
2022-10-05T16:26:21.567Z,20.98
2022-10-05T16:29:09.135Z,21.07
2022-10-05T16:31:56.811Z,20.60
2022-10-05T16:34:44.353Z,20.61
2022-10-05T16:37:31.904Z,20.69
2022-10-05T16:40:19.434Z,20.75
2022-10-05T16:43:07.006Z,21.03
2022-10-05T16:45:54.605Z,20.58
2022-10-05T16:48:42.219Z,20.17
2022-10-05T16:51:29.777Z,20.32
2022-10-05T16:54:17.362Z,20.28
2022-10-05T16:57:04.934Z,20.31
2022-10-05T16:59:52.522Z,19.85
2022-10-05T17:02:40.155Z,19.84
2022-10-05T17:05:27.740Z,19.94
2022-10-05T17:08:15.294Z,20.18
2022-10-05T17:11:02.886Z,19.68
2022-10-05T17:13:50.438Z,19.32
2022-10-05T17:16:38.007Z,19.60
2022-10-05T17:19:25.575Z,19.38
2022-10-05T17:22:13.227Z,19.59
2022-10-05T17:25:00.769Z,19.45
2022-10-05T17:27:50.845Z,19.85
2022-10-05T17:30:38.780Z,19.74
2022-10-05T17:33:26.371Z,19.53
2022-10-05T17:36:13.941Z,19.39
2022-10-05T17:39:01.471Z,19.47
2022-10-05T17:41:49.037Z,19.31
2022-10-05T17:44:36.586Z,19.15
2022-10-05T17:47:24.162Z,19.26
2022-10-05T17:50:11.728Z,19.06
2022-10-05T17:53:02.289Z,19.10
2022-10-05T17:55:50.195Z,19.05
2022-10-05T17:58:37.759Z,18.99
2022-10-05T18:01:25.345Z,18.73
2022-10-05T18:04:12.957Z,18.63
2022-10-05T18:07:00.496Z,18.41
2022-10-05T18:09:48.089Z,18.64
2022-10-05T18:12:35.640Z,18.49
2022-10-05T18:15:23.202Z,18.32
2022-10-05T18:18:10.763Z,18.38
2022-10-05T18:20:58.338Z,18.42
2022-10-05T18:23:45.886Z,18.14
2022-10-05T18:26:33.458Z,18.26
2022-10-05T18:29:21.020Z,18.31
2022-10-05T18:32:08.588Z,18.15
2022-10-05T18:35:00.923Z,18.27
2022-10-05T18:37:49.486Z,18.05
2022-10-05T18:40:37.079Z,17.87
2022-10-05T18:43:24.650Z,17.85
2022-10-05T18:46:12.237Z,17.69
2022-10-05T18:48:59.817Z,17.94
2022-10-05T18:51:51.016Z,18.04
2022-10-05T18:54:39.449Z,17.70
2022-10-05T18:57:27.006Z,17.89
2022-10-05T19:00:14.577Z,18.13
2022-10-05T19:03:02.104Z,17.95
2022-10-05T19:05:49.688Z,18.06
2022-10-05T19:08:37.234Z,18.17
2022-10-05T19:11:24.806Z,17.86
2022-10-05T19:14:12.365Z,18.15
2022-10-05T19:16:59.938Z,18.41
2022-10-05T19:19:47.476Z,18.42
2022-10-05T19:22:35.045Z,18.52
2022-10-05T19:25:22.605Z,18.48
2022-10-05T19:28:10.423Z,18.44
2022-10-05T19:31:00.007Z,18.04
2022-10-05T19:33:47.619Z,18.05
2022-10-05T19:36:35.158Z,17.95
2022-10-05T19:39:22.722Z,17.60
2022-10-05T19:42:10.285Z,17.56
2022-10-05T19:44:57.833Z,17.54
2022-10-05T19:47:45.398Z,17.80
2022-10-05T19:50:32.947Z,17.70
2022-10-05T19:53:20.504Z,17.58
2022-10-05T19:56:08.051Z,17.33
2022-10-05T19:58:55.615Z,17.00
2022-10-05T20:01:43.191Z,16.93
2022-10-05T20:04:30.763Z,17.16
2022-10-05T20:07:18.317Z,16.92
2022-10-05T20:10:05.907Z,17.00
2022-10-05T20:12:53.443Z,16.99
2022-10-05T20:15:41.079Z,16.85
2022-10-05T20:18:29.164Z,16.93
2022-10-05T20:21:16.982Z,16.73
2022-10-05T20:24:04.531Z,16.91
2022-10-05T20:26:52.090Z,16.90
2022-10-05T20:29:39.668Z,16.58
2022-10-05T20:32:30.555Z,16.62
2022-10-05T20:35:18.413Z,16.89
2022-10-05T20:38:05.978Z,16.79
2022-10-05T20:40:53.504Z,16.98
2022-10-05T20:43:41.063Z,16.94
2022-10-05T20:46:28.627Z,16.79
2022-10-05T20:49:16.331Z,16.47
2022-10-05T20:52:05.871Z,16.67
2022-10-05T20:54:53.489Z,16.65
2022-10-05T20:57:41.108Z,16.56
2022-10-05T21:00:30.816Z,16.72
2022-10-05T21:03:21.441Z,16.43
2022-10-05T21:06:10.992Z,16.37
2022-10-05T21:08:58.536Z,16.08
2022-10-05T21:11:46.091Z,15.90
2022-10-05T21:14:33.660Z,15.57
2022-10-05T21:17:21.202Z,15.56
2022-10-05T21:20:08.758Z,15.24
2022-10-05T21:22:56.309Z,15.31
2022-10-05T21:25:43.877Z,15.47
2022-10-05T21:28:31.891Z,15.52
2022-10-05T21:31:19.834Z,15.47
2022-10-05T21:34:07.426Z,15.64
2022-10-05T21:36:54.988Z,15.54
2022-10-05T21:39:42.529Z,15.89
2022-10-05T21:42:30.088Z,15.91
2022-10-05T21:45:17.633Z,16.00
2022-10-05T21:48:05.237Z,15.90
2022-10-05T21:50:52.792Z,15.98
2022-10-05T21:53:40.362Z,16.18
2022-10-05T21:56:28.028Z,15.92
2022-10-05T21:59:15.582Z,16.01
2022-10-05T22:02:03.169Z,15.72
2022-10-05T22:04:50.739Z,15.95
2022-10-05T22:07:38.307Z,15.52
2022-10-05T22:10:25.861Z,15.65
2022-10-05T22:13:13.433Z,15.52
2022-10-05T22:16:01.054Z,15.52
2022-10-05T22:18:48.655Z,15.90
2022-10-05T22:21:36.192Z,15.59
2022-10-05T22:24:23.786Z,15.54
2022-10-05T22:27:11.357Z,15.50
2022-10-05T22:29:58.971Z,15.81
2022-10-05T22:32:46.536Z,15.78
2022-10-05T22:35:34.134Z,15.84
2022-10-05T22:38:21.694Z,15.79
2022-10-05T22:41:09.463Z,15.96
2022-10-05T22:43:57.036Z,15.45
2022-10-05T22:46:44.622Z,15.73
2022-10-05T22:49:32.182Z,15.85
2022-10-05T22:52:19.883Z,15.96
2022-10-05T22:55:09.425Z,15.39
2022-10-05T22:57:57.120Z,15.51
2022-10-05T23:00:57.993Z,15.98
2022-10-05T23:03:46.392Z,15.94
2022-10-05T23:06:33.960Z,15.71
2022-10-05T23:09:21.552Z,15.96
2022-10-05T23:12:09.101Z,15.88
2022-10-05T23:14:56.672Z,15.77
2022-10-05T23:17:44.244Z,15.78
2022-10-05T23:20:31.787Z,15.60
2022-10-05T23:23:19.340Z,15.93
2022-10-05T23:26:06.905Z,16.17
2022-10-05T23:28:54.459Z,15.98
2022-10-05T23:31:42.004Z,15.71
2022-10-05T23:34:29.600Z,15.91
2022-10-05T23:37:17.167Z,15.83
2022-10-05T23:40:04.801Z,16.08
2022-10-05T23:42:52.352Z,15.66
2022-10-05T23:45:39.960Z,15.73
2022-10-05T23:48:27.775Z,15.61
2022-10-05T23:51:15.537Z,15.48
2022-10-05T23:54:03.094Z,15.51
2022-10-05T23:56:52.668Z,15.03
2022-10-05T23:59:40.210Z,15.03
